createdAt,value
2017-01-18T04:00:57.014Z,38.45
2017-01-18T04:01:22.660Z,38.54
2017-01-18T04:02:15.661Z,38.45
2017-01-18T04:02:41.331Z,38.54
2017-01-18T04:03:06.881Z,38.45
2017-01-18T04:05:14.227Z,38.26
2017-01-18T04:05:39.783Z,38.35
2017-01-18T04:06:05.335Z,38.35
2017-01-18T04:06:30.894Z,38.35
2017-01-18T04:06:56.472Z,38.45
2017-01-18T04:07:22.031Z,38.35
2017-01-18T04:07:47.599Z,38.45
2017-01-18T04:08:13.171Z,38.54
2017-01-18T04:08:38.723Z,38.45
2017-01-18T04:09:04.396Z,38.35
2017-01-18T04:09:29.961Z,38.35
2017-01-18T04:09:55.535Z,38.26
2017-01-18T04:10:21.106Z,38.26
2017-01-18T04:10:46.736Z,38.45
2017-01-18T04:11:12.304Z,38.35
2017-01-18T04:11:37.860Z,38.26
2017-01-18T04:12:03.415Z,38.35
2017-01-18T04:12:29.335Z,38.54
2017-01-18T04:12:54.958Z,38.54
2017-01-18T04:13:20.520Z,38.45
2017-01-18T04:13:46.247Z,38.45
2017-01-18T04:14:11.854Z,38.45
2017-01-18T04:14:37.423Z,38.45
2017-01-18T04:15:03.005Z,38.45
2017-01-18T04:15:28.562Z,38.35
2017-01-18T04:15:54.113Z,38.45
2017-01-18T04:16:19.692Z,38.35
2017-01-18T04:16:45.380Z,38.45
2017-01-18T04:17:11.034Z,38.35
2017-01-18T04:17:36.590Z,38.35
2017-01-18T04:18:02.242Z,38.35
2017-01-18T04:18:27.932Z,38.35
2017-01-18T04:18:53.480Z,38.35
2017-01-18T04:19:19.059Z,38.45
2017-01-18T04:19:44.619Z,38.26
2017-01-18T04:20:10.170Z,38.35
2017-01-18T04:20:35.774Z,38.35
2017-01-18T04:21:01.350Z,38.35
2017-01-18T04:21:26.905Z,38.45
2017-01-18T04:21:52.456Z,38.35
2017-01-18T04:22:18.043Z,38.26
2017-01-18T04:22:43.640Z,38.26
2017-01-18T04:23:09.214Z,38.26
2017-01-18T04:23:34.807Z,38.46
2017-01-18T04:24:00.368Z,38.35
2017-01-18T04:24:26.053Z,38.46
2017-01-18T04:24:51.608Z,38.35
2017-01-18T04:25:17.176Z,38.45
2017-01-18T04:25:42.728Z,38.45
2017-01-18T04:26:08.402Z,38.16
2017-01-18T04:26:33.972Z,38.08
2017-01-18T04:26:59.537Z,38.06
2017-01-18T04:27:25.102Z,37.96
2017-01-18T04:27:50.739Z,38.18
2017-01-18T04:28:16.312Z,38.16
2017-01-18T04:28:41.901Z,38.26
2017-01-18T04:29:07.455Z,38.16
2017-01-18T04:29:33.032Z,38.06
2017-01-18T04:29:58.596Z,38.37
2017-01-18T04:30:24.192Z,38.18
2017-01-18T04:30:50.018Z,38.26
2017-01-18T04:31:15.579Z,38.06
2017-01-18T04:31:41.236Z,38.08
2017-01-18T04:32:06.871Z,38.06
2017-01-18T04:32:32.435Z,38.16
2017-01-18T04:32:58.107Z,38.26
2017-01-18T04:33:23.670Z,37.98
2017-01-18T04:33:49.229Z,38.06
2017-01-18T04:34:14.786Z,37.96
2017-01-18T04:34:40.475Z,38.37
2017-01-18T04:35:06.098Z,38.06
2017-01-18T04:35:31.653Z,38.26
2017-01-18T04:35:57.208Z,37.87
2017-01-18T04:36:22.786Z,37.87
2017-01-18T04:37:20.893Z,37.87
2017-01-18T04:37:46.461Z,37.89
2017-01-18T04:38:12.094Z,37.89
2017-01-18T04:38:37.695Z,37.87
2017-01-18T04:39:03.262Z,37.87
2017-01-18T04:39:28.831Z,37.79
2017-01-18T04:39:54.525Z,37.6
2017-01-18T04:40:20.107Z,37.68
2017-01-18T04:40:45.656Z,37.68
2017-01-18T04:41:11.206Z,37.89
2017-01-18T04:41:36.763Z,37.77
2017-01-18T04:42:02.339Z,37.77
2017-01-18T04:42:27.899Z,37.89
2017-01-18T04:42:53.468Z,37.77
2017-01-18T04:43:19.024Z,37.89
2017-01-18T04:43:44.636Z,38.06
2017-01-18T04:44:10.155Z,38.35
2017-01-18T04:44:35.715Z,37.96
2017-01-18T04:45:01.273Z,37.98
2017-01-18T04:45:26.969Z,38.16
2017-01-18T04:45:52.533Z,38.16
2017-01-18T04:46:18.118Z,38.06
2017-01-18T04:46:43.699Z,38.16
2017-01-18T04:47:09.263Z,38.26
2017-01-18T04:47:34.827Z,38.06
2017-01-18T04:48:00.371Z,38.18
2017-01-18T04:48:25.932Z,38.08
2017-01-18T04:48:52.421Z,38.26
2017-01-18T04:49:17.982Z,37.96
2017-01-18T04:49:43.544Z,37.87
2017-01-18T04:50:09.188Z,37.77
2017-01-18T04:50:34.805Z,37.68
2017-01-18T04:51:00.367Z,37.7
2017-01-18T04:51:25.954Z,37.68
2017-01-18T04:51:51.617Z,37.68
2017-01-18T04:52:17.187Z,37.6
2017-01-18T04:52:42.800Z,37.29
2017-01-18T04:53:08.334Z,37.58
2017-01-18T04:53:34.192Z,37.58
2017-01-18T04:54:00.487Z,37.7
2017-01-18T04:54:26.054Z,37.29
2017-01-18T04:54:51.666Z,37.39
2017-01-18T04:55:17.227Z,36.91
2017-01-18T04:55:42.816Z,36.61
2017-01-18T04:56:08.367Z,36.52
2017-01-18T04:56:33.947Z,37.01
2017-01-18T04:56:59.530Z,37.01
2017-01-18T04:57:25.159Z,37.29
2017-01-18T04:57:50.755Z,36.81
2017-01-18T04:58:16.322Z,36.83
2017-01-18T04:58:41.954Z,36.91
2017-01-18T04:59:07.578Z,36.33
2017-01-18T05:00:15.899Z,36.71
2017-01-18T05:00:41.462Z,36.25
2017-01-18T05:01:07.050Z,36.43
2017-01-18T05:01:32.667Z,36.13
2017-01-18T05:01:58.214Z,36.04
2017-01-18T05:02:23.789Z,35.94
2017-01-18T05:02:49.378Z,35.85
2017-01-18T05:03:14.968Z,35.94
2017-01-18T05:03:40.622Z,35.94
2017-01-18T05:04:06.301Z,36.04
2017-01-18T05:04:31.869Z,35.65
2017-01-18T05:04:57.451Z,35.75
2017-01-18T05:05:23.041Z,35.56
2017-01-18T05:05:48.636Z,35.56
2017-01-18T05:06:14.190Z,35.46
2017-01-18T05:06:39.774Z,35.36
2017-01-18T05:07:05.520Z,35.36
2017-01-18T05:07:31.110Z,35.19
2017-01-18T05:07:56.674Z,35.17
2017-01-18T05:08:22.272Z,35.17
2017-01-18T05:08:47.820Z,35.17
2017-01-18T05:09:13.379Z,35.08
2017-01-18T05:09:38.946Z,35.17
2017-01-18T05:10:04.584Z,35.46
2017-01-18T05:10:30.146Z,35.46
2017-01-18T05:10:55.703Z,35.08
2017-01-18T05:11:21.270Z,35.08
2017-01-18T05:11:46.968Z,34.88
2017-01-18T05:12:12.575Z,34.69
2017-01-18T05:12:38.244Z,34.61
2017-01-18T05:13:03.829Z,34.59
2017-01-18T05:13:29.389Z,34.59
2017-01-18T05:13:54.967Z,34.4
2017-01-18T05:14:20.529Z,34.3
2017-01-18T05:15:18.635Z,34.42
2017-01-18T05:15:44.193Z,34.13
2017-01-18T05:16:09.753Z,34.5
2017-01-18T05:16:35.315Z,34.4
2017-01-18T05:17:00.926Z,34.52
2017-01-18T05:17:26.574Z,34.4
2017-01-18T05:17:52.091Z,34.5
2017-01-18T05:18:17.684Z,34.59
2017-01-18T05:19:10.753Z,34.78
2017-01-18T05:19:36.329Z,34.78
2017-01-18T05:20:02.068Z,34.9
2017-01-18T05:20:27.618Z,34.98
2017-01-18T05:21:25.733Z,34.88
2017-01-18T05:21:51.473Z,34.98
2017-01-18T05:22:17.035Z,35.08
2017-01-18T05:22:42.599Z,35.17
2017-01-18T05:23:08.246Z,35.17
2017-01-18T05:23:33.852Z,35.17
2017-01-18T05:23:59.394Z,35.36
2017-01-18T05:24:24.955Z,35.46
2017-01-18T05:24:50.505Z,35.46
2017-01-18T05:25:16.048Z,35.27
2017-01-18T05:25:41.628Z,35.46
2017-01-18T05:26:07.218Z,35.46
2017-01-18T05:26:32.793Z,35.46
2017-01-18T05:26:58.363Z,35.65
2017-01-18T05:27:23.913Z,35.96
2017-01-18T05:27:49.478Z,36.04
2017-01-18T05:28:15.046Z,36.23
2017-01-18T05:28:40.637Z,35.94
2017-01-18T05:29:06.255Z,36.33
2017-01-18T05:29:31.837Z,36.13
2017-01-18T05:29:57.410Z,36.71
2017-01-18T05:30:22.951Z,36.52
2017-01-18T05:30:48.523Z,36.71
2017-01-18T05:31:14.128Z,36.93
2017-01-18T05:31:39.682Z,36.81
2017-01-18T05:32:05.468Z,36.91
2017-01-18T05:32:31.032Z,36.54
2017-01-18T05:32:56.618Z,36.52
2017-01-18T05:33:22.296Z,36.83
2017-01-18T05:33:47.902Z,37.02
2017-01-18T05:34:13.471Z,37.1
2017-01-18T05:34:39.048Z,36.54
2017-01-18T05:35:04.710Z,36.54
2017-01-18T05:35:30.452Z,36.83
2017-01-18T05:36:33.723Z,36.73
2017-01-18T05:36:59.340Z,36.81
2017-01-18T05:37:24.990Z,36.91
2017-01-18T05:37:50.570Z,37.01
2017-01-18T05:38:16.308Z,36.83
2017-01-18T05:38:41.857Z,37.02
2017-01-18T05:39:07.423Z,37.21
2017-01-18T05:39:33.014Z,36.93
2017-01-18T05:39:58.571Z,36.93
2017-01-18T05:40:24.147Z,36.73
2017-01-18T05:40:49.704Z,37.12
2017-01-18T05:41:15.264Z,37.31
2017-01-18T05:41:40.819Z,37.31
2017-01-18T05:42:44.120Z,38.28
2017-01-18T05:43:09.694Z,38.46
2017-01-18T05:43:35.298Z,38.46
2017-01-18T05:44:00.934Z,38.37
2017-01-18T05:44:26.480Z,38.18
2017-01-18T05:44:52.054Z,38.46
2017-01-18T05:45:17.602Z,38.08
2017-01-18T05:45:43.163Z,38.08
2017-01-18T05:46:08.782Z,38.06
2017-01-18T05:46:34.367Z,38.28
2017-01-18T05:46:59.917Z,37.89
2017-01-18T05:47:25.653Z,37.98
2017-01-18T05:47:51.189Z,37.79
2017-01-18T05:48:16.750Z,37.79
2017-01-18T05:48:42.317Z,37.79
2017-01-18T05:49:07.878Z,37.6
2017-01-18T05:49:33.439Z,37.7
2017-01-18T05:49:58.999Z,37.6
2017-01-18T05:50:24.584Z,37.7
2017-01-18T05:50:50.247Z,37.79
2017-01-18T05:51:15.799Z,37.79
2017-01-18T05:51:41.343Z,37.79
2017-01-18T05:52:06.924Z,37.98
2017-01-18T05:52:32.486Z,38.28
2017-01-18T05:52:58.021Z,38.08
2017-01-18T05:53:23.582Z,37.89
2017-01-18T05:53:49.152Z,37.98
2017-01-18T05:54:14.706Z,38.08
2017-01-18T05:54:40.272Z,38.28
2017-01-18T05:55:05.877Z,38.37
2017-01-18T05:55:31.439Z,38.66
2017-01-18T05:55:56.991Z,39.04
2017-01-18T05:56:22.560Z,38.95
2017-01-18T05:56:48.126Z,39.04
2017-01-18T05:57:13.681Z,39.14
2017-01-18T05:57:39.234Z,38.85
2017-01-18T05:58:04.797Z,38.95
2017-01-18T05:58:30.391Z,39.14
2017-01-18T05:58:56.051Z,39.24
2017-01-18T05:59:21.626Z,39.14
2017-01-18T05:59:47.205Z,39.34
2017-01-18T06:00:12.767Z,39.53
2017-01-18T06:00:38.332Z,39.04
2017-01-18T06:01:03.896Z,39.14
2017-01-18T06:01:29.495Z,39.24
2017-01-18T06:01:55.045Z,39.24
2017-01-18T06:02:20.711Z,39.04
2017-01-18T06:02:46.253Z,39.14
2017-01-18T06:03:11.805Z,39.04
2017-01-18T06:03:37.397Z,38.85
2017-01-18T06:04:02.968Z,38.95
2017-01-18T06:04:29.466Z,39.43
2017-01-18T06:04:55.010Z,39.24
2017-01-18T06:05:20.668Z,39.91
2017-01-18T06:05:46.236Z,40.11
2017-01-18T06:06:11.807Z,40.3
2017-01-18T06:06:37.446Z,40.59
2017-01-18T06:07:03.001Z,40.69
2017-01-18T06:07:28.554Z,40.59
2017-01-18T06:07:54.225Z,40.49
2017-01-18T06:08:19.808Z,40.39
2017-01-18T06:08:45.360Z,40.39
2017-01-18T06:09:11.039Z,40.59
2017-01-18T06:09:36.652Z,40.2
2017-01-18T06:10:02.196Z,40.3
2017-01-18T06:10:27.811Z,40.39
2017-01-18T06:10:53.468Z,40.11
2017-01-18T06:11:19.018Z,40.59
2017-01-18T06:11:44.581Z,40.49
2017-01-18T06:12:10.139Z,40.49
2017-01-18T06:12:35.794Z,40.3
2017-01-18T06:13:01.361Z,40.11
2017-01-18T06:13:26.913Z,40.49
2017-01-18T06:13:52.492Z,40.49
2017-01-18T06:14:18.048Z,40.39
2017-01-18T06:14:43.704Z,40.49
2017-01-18T06:15:09.252Z,40.2
2017-01-18T06:15:34.819Z,40.2
2017-01-18T06:16:00.420Z,40.2
2017-01-18T06:16:25.985Z,40.11
2017-01-18T06:16:51.567Z,40.2
2017-01-18T06:17:17.114Z,40.11
2017-01-18T06:17:42.691Z,39.82
2017-01-18T06:18:08.297Z,40.11
2017-01-18T06:18:33.863Z,40.11
2017-01-18T06:18:59.439Z,39.91
2017-01-18T06:19:24.993Z,40.2
2017-01-18T06:19:50.656Z,40.11
2017-01-18T06:20:16.241Z,40.01
2017-01-18T06:20:41.799Z,40.11
2017-01-18T06:21:07.360Z,40.2
2017-01-18T06:21:33.630Z,40.01
2017-01-18T06:21:59.995Z,40.11
2017-01-18T06:22:25.273Z,40.49
2017-01-18T06:22:50.842Z,40.69
2017-01-18T06:23:16.404Z,40.88
2017-01-18T06:23:41.976Z,41.17
2017-01-18T06:24:07.533Z,41.36
2017-01-18T06:24:33.115Z,40.59
2017-01-18T06:24:58.686Z,39.82
2017-01-18T06:25:24.253Z,39.53
2017-01-18T06:25:49.817Z,39.72
2017-01-18T06:26:15.342Z,40.49
2017-01-18T06:26:40.889Z,40.59
2017-01-18T06:27:06.718Z,39.62
2017-01-18T06:27:32.298Z,39.62
2017-01-18T06:27:57.853Z,40.01
2017-01-18T06:28:23.406Z,39.24
2017-01-18T06:28:48.998Z,38.85
2017-01-18T06:29:52.214Z,39.04
2017-01-18T06:30:17.925Z,38.95
2017-01-18T06:30:43.475Z,38.95
2017-01-18T06:31:09.035Z,39.04
2017-01-18T06:31:34.739Z,39.04
2017-01-18T06:32:00.320Z,38.95
2017-01-18T06:32:25.904Z,39.04
2017-01-18T06:32:51.481Z,39.04
2017-01-18T06:33:17.167Z,39.34
2017-01-18T06:33:42.733Z,39.14
2017-01-18T06:34:08.416Z,39.24
2017-01-18T06:34:33.989Z,39.62
2017-01-18T06:34:59.557Z,39.34
2017-01-18T06:35:25.228Z,39.43
2017-01-18T06:35:50.826Z,39.14
2017-01-18T06:36:16.388Z,40.11
2017-01-18T06:36:41.971Z,40.59
2017-01-18T06:37:07.530Z,40.3
2017-01-18T06:37:33.121Z,40.2
2017-01-18T06:37:58.690Z,40.49
2017-01-18T06:38:24.272Z,40.3
2017-01-18T06:38:49.835Z,40.2
2017-01-18T06:39:15.399Z,40.69
2017-01-18T06:39:40.980Z,40.88
2017-01-18T06:40:06.522Z,40.97
2017-01-18T06:40:32.067Z,40.78
2017-01-18T06:40:57.780Z,40.88
2017-01-18T06:41:23.373Z,40.97
2017-01-18T06:41:48.932Z,40.78
2017-01-18T06:42:14.633Z,40.88
2017-01-18T06:42:40.302Z,40.88
2017-01-18T06:43:05.954Z,40.69
2017-01-18T06:43:31.558Z,40.88
2017-01-18T06:43:57.777Z,40.88
2017-01-18T06:44:23.337Z,40.88
2017-01-18T06:44:48.905Z,41.07
2017-01-18T06:45:14.461Z,40.78
2017-01-18T06:45:40.825Z,40.69
2017-01-18T06:46:05.685Z,40.97
2017-01-18T06:46:31.840Z,41.17
2017-01-18T06:46:57.577Z,41.17
2017-01-18T06:47:23.146Z,40.59
2017-01-18T06:47:48.714Z,40.78
2017-01-18T06:48:14.354Z,40.88
2017-01-18T06:48:40.066Z,41.17
2017-01-18T06:49:05.637Z,41.17
2017-01-18T06:49:31.216Z,40.97
2017-01-18T06:49:56.832Z,41.07
2017-01-18T06:50:22.402Z,40.97
2017-01-18T06:50:47.965Z,40.97
2017-01-18T06:51:13.540Z,41.07
2017-01-18T06:52:06.563Z,41.27
2017-01-18T06:52:32.148Z,41.07
2017-01-18T06:52:57.710Z,41.07
2017-01-18T06:53:23.277Z,41.36
2017-01-18T06:54:21.483Z,41.36
2017-01-18T06:54:47.062Z,41.36
2017-01-18T06:55:12.619Z,41.36
2017-01-18T06:55:38.179Z,41.36
2017-01-18T06:56:03.734Z,41.36
2017-01-18T06:56:29.285Z,41.27
2017-01-18T06:56:54.879Z,41.27
2017-01-18T06:57:47.969Z,41.55
2017-01-18T06:58:13.516Z,41.65
2017-01-18T07:00:20.692Z,41.55
2017-01-18T07:01:34.229Z,41.55
2017-01-18T07:01:59.858Z,41.55
2017-01-18T07:02:25.399Z,41.46
2017-01-18T07:02:50.957Z,41.36
2017-01-18T07:03:16.621Z,41.65
2017-01-18T07:03:42.209Z,41.75
2017-01-18T07:04:07.756Z,41.36
2017-01-18T07:04:33.423Z,41.55
2017-01-18T07:04:59.017Z,41.65
2017-01-18T07:05:24.572Z,41.55
2017-01-18T07:05:50.137Z,41.55
2017-01-18T07:06:15.699Z,41.84
2017-01-18T07:06:41.251Z,41.65
2017-01-18T07:07:06.821Z,41.65
2017-01-18T07:07:32.379Z,41.84
2017-01-18T07:07:57.937Z,41.84
2017-01-18T07:08:23.615Z,41.84
2017-01-18T07:08:49.152Z,41.94
2017-01-18T07:09:14.710Z,41.55
2017-01-18T07:09:40.253Z,41.75
2017-01-18T07:10:53.678Z,41.84
2017-01-18T07:11:19.233Z,41.75
2017-01-18T07:11:44.790Z,41.55
2017-01-18T07:12:10.387Z,41.55
2017-01-18T07:12:35.944Z,41.55
2017-01-18T07:13:39.227Z,41.84
2017-01-18T07:14:04.834Z,41.46
2017-01-18T07:14:30.593Z,41.55
2017-01-18T07:14:56.241Z,41.36
2017-01-18T07:15:21.777Z,41.84
2017-01-18T07:15:47.447Z,41.94
2017-01-18T07:16:12.975Z,41.46
2017-01-18T07:16:38.561Z,41.55
2017-01-18T07:17:04.147Z,41.46
2017-01-18T07:17:30.098Z,41.65
2017-01-18T07:17:55.672Z,41.46
2017-01-18T07:18:21.219Z,41.65
2017-01-18T07:18:46.781Z,41.55
2017-01-18T07:19:12.477Z,41.46
2017-01-18T07:19:38.043Z,41.65
2017-01-18T07:20:03.607Z,41.46
2017-01-18T07:20:29.195Z,41.46
2017-01-18T07:20:54.810Z,41.55
2017-01-18T07:21:20.374Z,41.65
2017-01-18T07:21:45.937Z,41.65
2017-01-18T07:22:11.621Z,41.65
2017-01-18T07:22:37.241Z,41.36
2017-01-18T07:23:02.800Z,41.65
2017-01-18T07:23:28.369Z,41.46
2017-01-18T07:23:54.020Z,41.46
2017-01-18T07:24:19.598Z,41.46
2017-01-18T07:24:45.265Z,41.65
2017-01-18T07:25:10.902Z,41.55
2017-01-18T07:25:36.650Z,41.46
2017-01-18T07:26:02.269Z,41.46
2017-01-18T07:26:27.861Z,41.65
2017-01-18T07:26:53.390Z,41.65
2017-01-18T07:27:18.954Z,41.65
2017-01-18T07:27:44.513Z,41.55
2017-01-18T07:28:10.329Z,41.55
2017-01-18T07:28:35.912Z,41.55
2017-01-18T07:29:01.478Z,41.75
2017-01-18T07:29:27.079Z,41.36
2017-01-18T07:29:52.727Z,41.36
2017-01-18T07:30:18.282Z,41.27
2017-01-18T07:30:43.875Z,41.46
2017-01-18T07:31:09.593Z,41.36
2017-01-18T07:31:35.186Z,41.36
2017-01-18T07:32:00.773Z,41.27
2017-01-18T07:32:26.365Z,41.36
2017-01-18T07:32:51.955Z,41.27
2017-01-18T07:33:17.524Z,41.17
2017-01-18T07:33:43.120Z,41.27
2017-01-18T07:34:08.758Z,41.27
2017-01-18T07:34:34.343Z,41.36
2017-01-18T07:34:59.909Z,41.36
2017-01-18T07:35:25.525Z,41.36
2017-01-18T07:35:51.269Z,41.27
2017-01-18T07:36:16.975Z,41.27
2017-01-18T07:36:42.542Z,41.34
2017-01-18T07:37:08.095Z,41.36
2017-01-18T07:37:33.839Z,41.07
2017-01-18T07:37:59.416Z,41.07
2017-01-18T07:38:24.965Z,40.97
2017-01-18T07:38:50.638Z,41.17
2017-01-18T07:39:16.201Z,41.27
2017-01-18T07:39:41.768Z,41.07
2017-01-18T07:40:07.415Z,41.07
2017-01-18T07:40:32.991Z,41.27
2017-01-18T07:40:58.551Z,40.86
2017-01-18T07:41:24.122Z,40.95
2017-01-18T07:41:50.353Z,41.07
2017-01-18T07:42:15.378Z,40.97
2017-01-18T07:42:40.933Z,41.14
2017-01-18T07:43:54.469Z,40.97
2017-01-18T07:45:07.875Z,41.27
2017-01-18T07:45:33.492Z,40.97
2017-01-18T07:45:59.101Z,40.86
2017-01-18T07:48:06.412Z,40.95
2017-01-18T07:48:31.990Z,41.05
2017-01-18T07:48:57.559Z,40.88
2017-01-18T07:49:23.146Z,40.78
2017-01-18T07:49:48.701Z,40.95
2017-01-18T07:50:14.449Z,41.27
2017-01-18T07:50:40.016Z,41.07
2017-01-18T07:51:05.631Z,41.05
2017-01-18T07:52:13.956Z,40.95
2017-01-18T07:52:39.537Z,41.07
2017-01-18T07:53:05.191Z,41.05
2017-01-18T07:53:30.854Z,41.05
2017-01-18T07:53:56.426Z,40.97
2017-01-18T07:54:21.978Z,40.95
2017-01-18T07:54:47.672Z,41.17
2017-01-18T07:55:13.239Z,41.07
2017-01-18T07:56:26.850Z,41.17
2017-01-18T07:56:53.061Z,41.17
2017-01-18T07:57:18.623Z,41.36
2017-01-18T07:57:44.169Z,41.27
2017-01-18T07:58:09.722Z,41.34
2017-01-18T07:58:35.276Z,41.27
2017-01-18T07:59:00.911Z,41.27
2017-01-18T07:59:26.477Z,41.34
2017-01-18T07:59:52.027Z,41.24
2017-01-18T08:00:17.614Z,41.27
2017-01-18T08:00:43.169Z,41.46
2017-01-18T08:01:08.747Z,41.36
2017-01-18T08:01:34.311Z,41.27
2017-01-18T08:01:59.878Z,41.36
2017-01-18T08:02:25.731Z,41.46
2017-01-18T08:02:51.391Z,41.46
2017-01-18T08:03:16.943Z,41.46
2017-01-18T08:03:42.530Z,41.46
2017-01-18T08:04:08.225Z,41.36
2017-01-18T08:04:33.788Z,41.46
2017-01-18T08:04:59.335Z,41.55
2017-01-18T08:05:24.897Z,41.53
2017-01-18T08:05:50.612Z,41.36
2017-01-18T08:06:16.171Z,41.24
2017-01-18T08:06:41.714Z,41.44
2017-01-18T08:07:07.335Z,41.65
2017-01-18T08:07:32.967Z,41.55
2017-01-18T08:07:58.537Z,41.46
2017-01-18T08:08:56.651Z,41.27
2017-01-18T08:09:22.222Z,41.36
2017-01-18T08:11:29.332Z,41.36
2017-01-18T08:11:54.971Z,41.36
2017-01-18T08:12:20.666Z,41.36
2017-01-18T08:12:46.732Z,41.27
2017-01-18T08:13:14.233Z,41.34
2017-01-18T08:13:40.769Z,41.27
2017-01-18T08:14:07.737Z,41.27
2017-01-18T08:14:34.236Z,41.36
2017-01-18T08:14:58.920Z,41.24
2017-01-18T08:15:24.532Z,41.36
2017-01-18T08:15:50.734Z,41.17
2017-01-18T08:16:15.918Z,41.27
2017-01-18T08:16:41.486Z,41.46
2017-01-18T08:17:07.068Z,41.14
2017-01-18T08:17:32.662Z,41.34
2017-01-18T08:17:58.239Z,41.36
2017-01-18T08:18:23.808Z,41.36
2017-01-18T08:18:49.458Z,41.27
2017-01-18T08:20:02.969Z,41.17
2017-01-18T08:20:28.532Z,41.36
2017-01-18T08:20:54.092Z,41.36
2017-01-18T08:21:19.758Z,41.36
2017-01-18T08:21:45.276Z,41.27
2017-01-18T08:22:10.939Z,41.17
2017-01-18T08:22:38.062Z,41.07
2017-01-18T08:23:03.623Z,41.36
2017-01-18T08:23:29.279Z,41.34
2017-01-18T08:23:54.845Z,40.95
2017-01-18T08:24:20.423Z,40.97
2017-01-18T08:24:46.006Z,40.59
2017-01-18T08:25:11.734Z,40.39
2017-01-18T08:25:37.310Z,40.57
2017-01-18T08:26:02.895Z,40.37
2017-01-18T08:26:28.461Z,40.66
2017-01-18T08:26:54.007Z,40.78
2017-01-18T08:27:19.677Z,41.07
2017-01-18T08:27:45.240Z,40.97
2017-01-18T08:28:10.791Z,40.97
2017-01-18T08:28:36.446Z,41.17
2017-01-18T08:29:02.062Z,40.78
2017-01-18T08:29:27.637Z,40.88
2017-01-18T08:29:53.252Z,40.59
2017-01-18T08:30:18.819Z,40.19
2017-01-18T08:30:44.374Z,40.3
2017-01-18T08:31:10.030Z,40.69
2017-01-18T08:31:35.665Z,40.86
2017-01-18T08:32:01.247Z,40.66
2017-01-18T08:32:26.838Z,40.97
2017-01-18T08:32:52.433Z,40.95
2017-01-18T08:33:18.069Z,41.07
2017-01-18T08:33:43.632Z,41.24
2017-01-18T08:34:09.244Z,41.27
2017-01-18T08:34:34.905Z,41.36
2017-01-18T08:35:00.473Z,40.97
2017-01-18T08:35:26.067Z,40.97
2017-01-18T08:35:51.623Z,40.95
2017-01-18T08:36:17.284Z,40.97
2017-01-18T08:36:42.850Z,40.97
2017-01-18T08:37:08.536Z,40.97
2017-01-18T08:37:34.120Z,40.97
2017-01-18T08:37:59.721Z,41.07
2017-01-18T08:38:25.340Z,40.97
2017-01-18T08:38:50.905Z,41.14
2017-01-18T08:39:16.460Z,41.05
2017-01-18T08:39:42.078Z,41.17
2017-01-18T08:40:07.765Z,41.17
2017-01-18T08:40:33.327Z,40.69
2017-01-18T08:40:58.870Z,41.17
2017-01-18T08:41:24.531Z,41.17
2017-01-18T08:41:50.125Z,40.69
2017-01-18T08:42:15.701Z,40.88
2017-01-18T08:42:41.283Z,40.97
2017-01-18T08:43:06.920Z,40.88
2017-01-18T08:43:32.666Z,40.76
2017-01-18T08:43:58.263Z,40.97
2017-01-18T08:44:23.842Z,40.78
2017-01-18T08:44:49.432Z,40.88
2017-01-18T08:45:15.034Z,40.97
2017-01-18T08:45:40.653Z,40.78
2017-01-18T08:46:06.251Z,40.88
2017-01-18T08:46:31.936Z,40.78
2017-01-18T08:46:57.524Z,40.88
2017-01-18T08:47:23.087Z,40.86
2017-01-18T08:47:48.813Z,40.88
2017-01-18T08:48:14.388Z,40.76
2017-01-18T08:48:39.951Z,41.07
2017-01-18T08:49:05.610Z,40.66
2017-01-18T08:49:31.181Z,40.66
2017-01-18T08:49:56.724Z,40.97
2017-01-18T08:50:22.393Z,40.86
2017-01-18T08:50:48.044Z,40.69
2017-01-18T08:51:13.550Z,40.59
2017-01-18T08:51:39.122Z,40.66
2017-01-18T08:52:04.725Z,40.88
2017-01-18T08:52:30.302Z,40.78
2017-01-18T08:52:55.842Z,40.69
2017-01-18T08:53:21.386Z,40.88
2017-01-18T08:53:46.943Z,40.69
2017-01-18T08:54:12.554Z,40.66
2017-01-18T08:54:38.148Z,40.69
2017-01-18T08:55:03.720Z,40.76
2017-01-18T08:55:29.290Z,40.57
2017-01-18T08:55:54.985Z,40.69
2017-01-18T08:56:20.593Z,40.69
2017-01-18T08:56:46.160Z,40.66
2017-01-18T08:57:11.760Z,40.78
2017-01-18T08:57:37.322Z,40.69
2017-01-18T08:58:02.877Z,40.59
2017-01-18T08:58:28.627Z,40.59
2017-01-18T08:58:54.177Z,40.59
2017-01-18T08:59:19.833Z,40.59
2017-01-18T08:59:45.391Z,40.59
2017-01-18T09:00:10.970Z,40.78
2017-01-18T09:00:36.525Z,40.47
2017-01-18T09:01:02.080Z,40.86
2017-01-18T09:01:27.680Z,40.59
2017-01-18T09:01:53.377Z,40.59
2017-01-18T09:02:18.955Z,40.69
2017-01-18T09:02:44.636Z,40.59
2017-01-18T09:03:10.222Z,40.57
2017-01-18T09:03:35.767Z,40.59
2017-01-18T09:04:01.332Z,40.57
2017-01-18T09:04:26.891Z,40.59
2017-01-18T09:04:52.486Z,40.49
2017-01-18T09:05:18.053Z,40.59
2017-01-18T09:05:43.742Z,40.66
2017-01-18T09:06:09.322Z,40.39
2017-01-18T09:06:34.924Z,40.3
2017-01-18T09:07:00.628Z,40.49
2017-01-18T09:07:26.197Z,40.39
2017-01-18T09:07:51.750Z,40.49
2017-01-18T09:08:17.332Z,40.2
2017-01-18T09:08:42.888Z,40.49
2017-01-18T09:09:08.547Z,40.49
2017-01-18T09:09:34.136Z,40.59
2017-01-18T09:09:59.815Z,40.49
2017-01-18T09:10:25.373Z,40.3
2017-01-18T09:10:50.944Z,40.49
2017-01-18T09:11:16.569Z,40.69
2017-01-18T09:11:42.229Z,40.59
2017-01-18T09:12:07.804Z,40.59
2017-01-18T09:12:33.380Z,40.59
2017-01-18T09:12:58.974Z,40.3
2017-01-18T09:13:24.543Z,40.47
2017-01-18T09:13:50.103Z,40.49
2017-01-18T09:14:15.802Z,40.59
2017-01-18T09:14:41.683Z,40.3
2017-01-18T09:15:07.101Z,40.49
2017-01-18T09:15:32.595Z,40.3
2017-01-18T09:15:58.158Z,40.49
2017-01-18T09:16:23.781Z,40.69
2017-01-18T09:16:49.372Z,40.59
2017-01-18T09:17:15.176Z,40.69
2017-01-18T09:17:40.741Z,40.59
2017-01-18T09:18:06.238Z,40.57
2017-01-18T09:18:31.970Z,40.59
2017-01-18T09:18:57.688Z,40.59
2017-01-18T09:19:23.241Z,40.57
2017-01-18T09:19:48.809Z,40.69
2017-01-18T09:20:14.402Z,40.47
2017-01-18T09:20:40.050Z,40.59
2017-01-18T09:21:05.604Z,40.49
2017-01-18T09:21:31.166Z,40.78
2017-01-18T09:21:57.095Z,40.78
2017-01-18T09:22:22.541Z,40.78
2017-01-18T09:22:48.211Z,40.88
2017-01-18T09:23:13.767Z,40.88
2017-01-18T09:23:39.336Z,40.88
2017-01-18T09:24:04.899Z,40.78
2017-01-18T09:24:30.516Z,40.78
2017-01-18T09:24:57.016Z,41.05
2017-01-18T09:25:21.654Z,40.88
2017-01-18T09:25:47.329Z,40.88
2017-01-18T09:26:12.900Z,40.69
2017-01-18T09:26:38.465Z,40.95
2017-01-18T09:27:04.039Z,40.97
2017-01-18T09:27:29.623Z,40.88
2017-01-18T09:27:55.191Z,40.97
2017-01-18T09:28:20.763Z,40.86
2017-01-18T09:28:46.336Z,40.97
2017-01-18T09:29:11.892Z,40.86
2017-01-18T09:29:37.522Z,40.88
2017-01-18T09:30:03.122Z,40.97
2017-01-18T09:30:28.695Z,40.88
2017-01-18T09:30:54.318Z,40.88
2017-01-18T09:31:19.952Z,40.88
2017-01-18T09:31:45.513Z,40.69
2017-01-18T09:32:11.093Z,40.69
2017-01-18T09:32:36.678Z,40.69
2017-01-18T09:33:02.244Z,40.59
2017-01-18T09:33:27.790Z,40.69
2017-01-18T09:33:53.423Z,40.59
2017-01-18T09:34:18.986Z,40.69
2017-01-18T09:34:44.568Z,40.97
2017-01-18T09:35:10.237Z,40.88
2017-01-18T09:35:35.803Z,40.97
2017-01-18T09:36:01.394Z,40.78
2017-01-18T09:36:26.962Z,40.69
2017-01-18T09:36:52.519Z,40.88
2017-01-18T09:37:18.101Z,40.59
2017-01-18T09:37:43.645Z,40.59
2017-01-18T09:38:09.269Z,40.69
2017-01-18T09:38:34.847Z,40.69
2017-01-18T09:39:00.403Z,40.78
2017-01-18T09:39:25.966Z,40.88
2017-01-18T09:39:51.523Z,40.69
2017-01-18T09:40:17.090Z,40.69
2017-01-18T09:40:42.679Z,40.69
2017-01-18T09:41:08.287Z,40.69
2017-01-18T09:41:33.867Z,40.59
2017-01-18T09:41:59.437Z,40.59
2017-01-18T09:42:24.998Z,40.78
2017-01-18T09:42:50.588Z,40.69
2017-01-18T09:43:16.198Z,40.49
2017-01-18T09:43:41.748Z,40.78
2017-01-18T09:44:07.300Z,40.78
2017-01-18T09:44:32.856Z,40.97
2017-01-18T09:44:58.480Z,40.88
2017-01-18T09:45:24.072Z,40.88
2017-01-18T09:45:49.659Z,40.97
2017-01-18T09:46:15.241Z,40.88
2017-01-18T09:46:40.797Z,40.88
2017-01-18T09:47:06.402Z,40.69
2017-01-18T09:47:31.977Z,40.69
2017-01-18T09:47:57.688Z,40.59
2017-01-18T09:48:23.245Z,40.69
2017-01-18T09:48:48.799Z,40.88
2017-01-18T09:49:14.387Z,40.78
2017-01-18T09:49:39.949Z,40.78
2017-01-18T09:50:05.544Z,40.78
2017-01-18T09:50:31.302Z,40.69
2017-01-18T09:50:56.819Z,40.59